Time;durP1;ratioP1;P1;durP2;ratioP2;P2;SDS_P1;SDS_P2;PMS_P1;PMS_P2;Temp;Humidity;BMP_temperature;BMP_pressure;BME280_temperature;BME280_humidity;BME280_pressure;Samples;Min_cycle;Max_cycle;Signal;HPM_P1;HPM_P2
2022/04/05 00:02:19;;;;;;;0.47;0.47;;;;;;;;;;6153887;23;20173;-84
2022/04/05 00:04:49;;;;;;;0.47;0.47;;;;;;;;;;6155436;23;20225;-84
2022/04/05 00:07:17;;;;;;;0.40;0.40;;;;;;;;;;6154219;23;20209;-84
2022/04/05 00:09:46;;;;;;;0.50;0.50;;;;;;;;;;6155288;23;20302;-85
2022/04/05 00:12:14;;;;;;;0.50;0.50;;;;;;;;;;6154383;23;20179;-84
2022/04/05 00:14:43;;;;;;;0.50;0.50;;;;;;;;;;6154018;23;20185;-84
2022/04/05 00:17:11;;;;;;;0.50;0.50;;;;;;;;;;6129411;23;20241;-84
2022/04/05 00:19:40;;;;;;;0.40;0.40;;;;;;;;;;6154486;23;20174;-84
2022/04/05 00:22:09;;;;;;;0.50;0.50;;;;;;;;;;6176998;23;20212;-84
2022/04/05 00:24:38;;;;;;;0.50;0.50;;;;;;;;;;6185051;23;20184;-84
2022/04/05 00:27:06;;;;;;;0.50;0.50;;;;;;;;;;6158939;23;20185;-84
2022/04/05 00:29:35;;;;;;;0.50;0.50;;;;;;;;;;6184014;23;20196;-84
2022/04/05 00:32:03;;;;;;;0.50;0.50;;;;;;;;;;6158915;23;20192;-83
2022/04/05 00:34:32;;;;;;;0.40;0.40;;;;;;;;;;6158338;23;20173;-84
2022/04/05 00:37:00;;;;;;;0.40;0.40;;;;;;;;;;6183831;23;20176;-83
2022/04/05 00:39:30;;;;;;;0.50;0.50;;;;;;;;;;6158909;23;20184;-83
2022/04/05 00:41:58;;;;;;;0.50;0.50;;;;;;;;;;6184780;23;20178;-83
2022/04/05 00:44:27;;;;;;;0.50;0.50;;;;;;;;;;6183301;23;20180;-84
2022/04/05 00:46:56;;;;;;;0.50;0.50;;;;;;;;;;6158745;23;20180;-83
2022/04/05 00:49:28;;;;;;;0.50;0.50;;;;;;;;;;6159354;23;20202;-83
2022/04/05 00:51:56;;;;;;;0.50;0.50;;;;;;;;;;6186886;23;20176;-83
2022/04/05 00:54:26;;;;;;;0.50;0.50;;;;;;;;;;6161061;23;20177;-83
2022/04/05 00:56:57;;;;;;;0.40;0.40;;;;;;;;;;6186971;23;20253;-83
2022/04/05 00:59:27;;;;;;;0.50;0.50;;;;;;;;;;6160793;23;20177;-83
2022/04/05 01:01:56;;;;;;;0.50;0.50;;;;;;;;;;6160720;23;20187;-82
2022/04/05 01:04:28;;;;;;;0.50;0.50;;;;;;;;;;6186656;23;20209;-83
2022/04/05 01:06:57;;;;;;;0.60;0.60;;;;;;;;;;6160642;23;20181;-83
2022/04/05 01:09:25;;;;;;;0.50;0.50;;;;;;;;;;6187046;23;20173;-83
2022/04/05 01:11:55;;;;;;;0.50;0.50;;;;;;;;;;6160795;23;20212;-83
2022/04/05 01:14:24;;;;;;;0.50;0.50;;;;;;;;;;6185783;23;20173;-83
2022/04/05 01:16:52;;;;;;;0.50;0.50;;;;;;;;;;6160362;23;20181;-83
2022/04/05 01:19:21;;;;;;;0.50;0.50;;;;;;;;;;6161027;23;20227;-83
2022/04/05 01:21:49;;;;;;;0.50;0.50;;;;;;;;;;6155222;23;20214;-83
2022/04/05 01:24:19;;;;;;;0.50;0.50;;;;;;;;;;6156732;23;20178;-83
2022/04/05 01:26:48;;;;;;;0.50;0.50;;;;;;;;;;6155657;23;20219;-84
2022/04/05 01:29:17;;;;;;;0.50;0.50;;;;;;;;;;6130943;23;20190;-83
2022/04/05 01:31:47;;;;;;;0.40;0.40;;;;;;;;;;6130599;23;20216;-83
2022/04/05 01:34:16;;;;;;;0.40;0.40;;;;;;;;;;6130863;23;20176;-83
2022/04/05 01:36:46;;;;;;;0.50;0.50;;;;;;;;;;6157053;23;20182;-83
2022/04/05 01:39:15;;;;;;;0.50;0.50;;;;;;;;;;6155315;23;20178;-84
2022/04/05 01:41:45;;;;;;;0.50;0.50;;;;;;;;;;6130744;23;20179;-83
2022/04/05 01:44:15;;;;;;;0.50;0.50;;;;;;;;;;6155109;23;20189;-83
2022/04/05 01:46:43;;;;;;;0.50;0.50;;;;;;;;;;6130575;23;20204;-83
2022/04/05 01:49:14;;;;;;;0.43;0.43;;;;;;;;;;6155252;23;20239;-83
2022/04/05 01:51:43;;;;;;;0.50;0.50;;;;;;;;;;6130294;23;20197;-83
2022/04/05 01:54:13;;;;;;;0.50;0.50;;;;;;;;;;6130531;23;20179;-83
2022/04/05 01:56:46;;;;;;;0.50;0.50;;;;;;;;;;6155589;23;20177;-83
2022/04/05 01:59:15;;;;;;;0.53;0.53;;;;;;;;;;6130929;23;20187;-83
2022/04/05 02:01:44;;;;;;;0.50;0.50;;;;;;;;;;6154659;23;20257;-83
2022/04/05 02:06:59;;;;;;;0.40;0.40;;;;;;;;;;6209629;23;20232;-84
2022/04/05 02:09:27;;;;;;;0.50;0.50;;;;;;;;;;6189941;23;20204;-84
2022/04/05 02:11:58;;;;;;;0.50;0.50;;;;;;;;;;6189881;23;20200;-84
2022/04/05 02:14:27;;;;;;;0.50;0.50;;;;;;;;;;6189634;23;20183;-84
2022/04/05 02:16:55;;;;;;;0.50;0.50;;;;;;;;;;6189677;23;20180;-84
2022/04/05 02:19:23;;;;;;;0.50;0.50;;;;;;;;;;6216056;23;20183;-84
2022/04/05 02:21:52;;;;;;;0.50;0.50;;;;;;;;;;6189833;23;20175;-84
2022/04/05 02:24:19;;;;;;;0.50;0.50;;;;;;;;;;6189469;23;20258;-84
2022/04/05 02:26:48;;;;;;;0.50;0.50;;;;;;;;;;6189592;23;20180;-84
2022/04/05 02:29:17;;;;;;;0.60;0.60;;;;;;;;;;6189715;23;20182;-84
2022/04/05 02:31:46;;;;;;;0.50;0.50;;;;;;;;;;6189533;23;20219;-84
2022/04/05 02:34:14;;;;;;;0.50;0.50;;;;;;;;;;6189993;23;20175;-84
2022/04/05 02:36:43;;;;;;;0.50;0.50;;;;;;;;;;6189627;23;20191;-84
2022/04/05 02:39:12;;;;;;;0.50;0.50;;;;;;;;;;6189525;23;20239;-84
2022/04/05 02:41:40;;;;;;;0.50;0.50;;;;;;;;;;6189361;23;20167;-84
2022/04/05 02:44:09;;;;;;;0.50;0.50;;;;;;;;;;6190253;23;20176;-84
2022/04/05 02:46:38;;;;;;;0.47;0.47;;;;;;;;;;6189733;23;20178;-84
2022/04/05 02:49:08;;;;;;;0.50;0.50;;;;;;;;;;6189351;23;20210;-85
2022/04/05 02:51:38;;;;;;;0.50;0.50;;;;;;;;;;6215478;23;20199;-85
2022/04/05 02:54:06;;;;;;;0.50;0.50;;;;;;;;;;6189215;23;20175;-85
2022/04/05 02:56:35;;;;;;;0.50;0.50;;;;;;;;;;6189790;23;20177;-85
2022/04/05 02:59:03;;;;;;;0.50;0.50;;;;;;;;;;6215708;23;20199;-85
2022/04/05 03:01:32;;;;;;;0.50;0.50;;;;;;;;;;6189390;23;20176;-85
2022/04/05 03:04:05;;;;;;;0.50;0.50;;;;;;;;;;6189594;23;20269;-85
2022/04/05 03:06:34;;;;;;;0.40;0.40;;;;;;;;;;6183685;23;20212;-85
2022/04/05 03:09:03;;;;;;;0.50;0.50;;;;;;;;;;6185891;23;20181;-85
2022/04/05 03:11:31;;;;;;;0.50;0.50;;;;;;;;;;6184602;23;20193;-85
2022/04/05 03:14:00;;;;;;;0.50;0.50;;;;;;;;;;6184053;23;20181;-85
2022/04/05 03:16:29;;;;;;;0.50;0.50;;;;;;;;;;6185787;23;20185;-85
2022/04/05 03:18:57;;;;;;;0.50;0.50;;;;;;;;;;6184325;23;20207;-85
2022/04/05 03:21:27;;;;;;;0.50;0.50;;;;;;;;;;6185843;23;20179;-85
2022/04/05 03:23:55;;;;;;;0.50;0.50;;;;;;;;;;6184016;23;20180;-85
2022/04/05 03:26:24;;;;;;;0.50;0.50;;;;;;;;;;6184341;23;20185;-85
2022/04/05 03:28:53;;;;;;;0.40;0.40;;;;;;;;;;6183911;23;20197;-85
2022/04/05 03:31:21;;;;;;;0.50;0.50;;;;;;;;;;6184164;23;20205;-85
2022/04/05 03:33:50;;;;;;;0.57;0.57;;;;;;;;;;6185341;23;20177;-85
2022/04/05 03:36:18;;;;;;;0.50;0.50;;;;;;;;;;6183869;23;20180;-85
2022/04/05 03:38:48;;;;;;;0.40;0.40;;;;;;;;;;6184338;23;20185;-85
2022/04/05 03:41:16;;;;;;;0.40;0.40;;;;;;;;;;6183892;23;20276;-85
2022/04/05 03:43:45;;;;;;;0.50;0.50;;;;;;;;;;6183731;23;20187;-85
2022/04/05 03:46:13;;;;;;;0.50;0.50;;;;;;;;;;6184268;23;20180;-85
2022/04/05 03:48:42;;;;;;;0.50;0.50;;;;;;;;;;6184066;23;20187;-85
2022/04/05 03:51:10;;;;;;;0.50;0.50;;;;;;;;;;6183704;23;20175;-85
2022/04/05 03:53:39;;;;;;;0.50;0.50;;;;;;;;;;6184164;23;20180;-85
2022/04/05 03:56:09;;;;;;;0.50;0.50;;;;;;;;;;6184192;23;20184;-85
2022/04/05 03:58:37;;;;;;;0.50;0.50;;;;;;;;;;6183875;23;20181;-85
2022/04/05 04:01:06;;;;;;;0.50;0.50;;;;;;;;;;6184138;23;20188;-85
2022/04/05 04:03:35;;;;;;;0.50;0.50;;;;;;;;;;6185274;23;20172;-85
2022/04/05 04:06:04;;;;;;;0.50;0.50;;;;;;;;;;6183641;23;20217;-85
2022/04/05 04:08:32;;;;;;;0.50;0.50;;;;;;;;;;6183667;23;20176;-85
2022/04/05 04:11:01;;;;;;;0.50;0.50;;;;;;;;;;6184108;23;20172;-85
2022/04/05 04:13:32;;;;;;;0.50;0.50;;;;;;;;;;6183875;23;20200;-85
2022/04/05 04:16:00;;;;;;;0.50;0.50;;;;;;;;;;6184280;23;20173;-86
2022/04/05 04:18:29;;;;;;;0.50;0.50;;;;;;;;;;6185206;23;20175;-86
2022/04/05 04:20:57;;;;;;;0.50;0.50;;;;;;;;;;6183642;23;20176;-86
2022/04/05 04:23:26;;;;;;;0.50;0.50;;;;;;;;;;6184004;23;20185;-85
2022/04/05 04:25:56;;;;;;;0.50;0.50;;;;;;;;;;6185243;23;20264;-85
2022/04/05 04:28:24;;;;;;;0.50;0.50;;;;;;;;;;6184184;23;20177;-85
2022/04/05 04:30:54;;;;;;;0.50;0.50;;;;;;;;;;6184209;23;20185;-85
2022/04/05 04:33:22;;;;;;;0.57;0.57;;;;;;;;;;6184091;23;20208;-85
2022/04/05 04:35:52;;;;;;;0.50;0.50;;;;;;;;;;6183654;23;20229;-86
2022/04/05 04:38:20;;;;;;;0.50;0.50;;;;;;;;;;6185588;23;20186;-86
2022/04/05 04:40:50;;;;;;;0.60;0.60;;;;;;;;;;6183675;23;20178;-85
2022/04/05 04:43:19;;;;;;;0.50;0.50;;;;;;;;;;6183927;23;20182;-85
2022/04/05 04:45:48;;;;;;;0.50;0.50;;;;;;;;;;6185006;23;20232;-86
2022/04/05 04:48:19;;;;;;;0.50;0.50;;;;;;;;;;6183840;23;20185;-86
2022/04/05 04:50:48;;;;;;;0.50;0.50;;;;;;;;;;6183537;23;20193;-86
2022/04/05 04:53:16;;;;;;;0.50;0.50;;;;;;;;;;6184142;23;20211;-86
2022/04/05 04:55:45;;;;;;;0.40;0.40;;;;;;;;;;6183435;23;20212;-86
2022/04/05 04:58:31;;;;;;;0.50;0.50;;;;;;;;;;6183622;23;20198;-86
2022/04/05 05:01:00;;;;;;;0.57;0.57;;;;;;;;;;6183570;23;20178;-86
2022/04/05 05:03:30;;;;;;;0.50;0.50;;;;;;;;;;6183366;23;20177;-86
2022/04/05 05:05:58;;;;;;;0.50;0.50;;;;;;;;;;6183175;23;20294;-85
2022/04/05 05:08:27;;;;;;;0.50;0.50;;;;;;;;;;6183785;23;20182;-86
2022/04/05 05:10:55;;;;;;;0.50;0.50;;;;;;;;;;6184044;23;20181;-86
2022/04/05 05:13:24;;;;;;;0.50;0.50;;;;;;;;;;6183686;23;20200;-86
2022/04/05 05:15:53;;;;;;;0.60;0.60;;;;;;;;;;6184025;23;20176;-86
2022/04/05 05:18:23;;;;;;;0.50;0.50;;;;;;;;;;6183640;23;20188;-87
2022/04/05 05:20:53;;;;;;;0.50;0.50;;;;;;;;;;6184246;23;20216;-86
2022/04/05 05:23:21;;;;;;;0.60;0.60;;;;;;;;;;6186221;23;20169;-86
2022/04/05 05:25:50;;;;;;;0.53;0.53;;;;;;;;;;6183819;23;20184;-86
2022/04/05 05:28:19;;;;;;;0.50;0.50;;;;;;;;;;6183903;23;20216;-86
2022/04/05 05:30:47;;;;;;;0.70;0.70;;;;;;;;;;6183831;23;20373;-87
2022/04/05 05:33:16;;;;;;;0.50;0.50;;;;;;;;;;6183258;23;20226;-86
2022/04/05 05:35:44;;;;;;;0.50;0.50;;;;;;;;;;6183818;23;20212;-86
2022/04/05 05:38:14;;;;;;;0.50;0.50;;;;;;;;;;6185522;23;20239;-86
2022/04/05 05:40:42;;;;;;;0.60;0.60;;;;;;;;;;6185266;23;20207;-87
2022/04/05 05:43:11;;;;;;;0.57;0.57;;;;;;;;;;6185505;23;20174;-86
2022/04/05 05:45:40;;;;;;;4.90;4.57;;;;;;;;;;6185029;23;20182;-87
2022/04/05 05:48:08;;;;;;;0.50;0.50;;;;;;;;;;6185146;23;20191;-87
2022/04/05 05:50:38;;;;;;;0.50;0.50;;;;;;;;;;6184957;23;20182;-87
2022/04/05 05:53:07;;;;;;;0.50;0.50;;;;;;;;;;6185205;23;20300;-87
2022/04/05 05:55:37;;;;;;;0.40;0.40;;;;;;;;;;6186473;23;20177;-88
2022/04/05 05:58:06;;;;;;;0.50;0.50;;;;;;;;;;6185943;23;20204;-88
2022/04/05 06:00:34;;;;;;;0.50;0.50;;;;;;;;;;6186722;23;20178;-88
2022/04/05 06:03:03;;;;;;;0.50;0.50;;;;;;;;;;6186262;23;20177;-88
2022/04/05 06:05:33;;;;;;;0.50;0.50;;;;;;;;;;6184866;23;20290;-87
2022/04/05 06:08:01;;;;;;;0.50;0.50;;;;;;;;;;6185423;23;20173;-88
2022/04/05 06:10:30;;;;;;;0.50;0.50;;;;;;;;;;6185750;23;20178;-87
2022/04/05 06:13:00;;;;;;;0.50;0.50;;;;;;;;;;6185804;23;20251;-86
2022/04/05 06:15:29;;;;;;;0.50;0.50;;;;;;;;;;6185193;23;20181;-85
2022/04/05 06:17:59;;;;;;;0.50;0.50;;;;;;;;;;6185161;23;20181;-86
2022/04/05 06:20:29;;;;;;;0.50;0.50;;;;;;;;;;6185009;23;20182;-86
2022/04/05 06:22:58;;;;;;;0.60;0.60;;;;;;;;;;6184830;23;20173;-86
2022/04/05 06:25:28;;;;;;;0.50;0.50;;;;;;;;;;6184998;23;20230;-87
2022/04/05 06:27:56;;;;;;;0.50;0.50;;;;;;;;;;6185184;23;20213;-86
2022/04/05 06:30:26;;;;;;;0.50;0.50;;;;;;;;;;6185589;23;20251;-86
2022/04/05 06:33:04;;;;;;;0.50;0.50;;;;;;;;;;6185035;23;20280;-86
2022/04/05 06:35:33;;;;;;;0.50;0.50;;;;;;;;;;6185215;23;20561;-86
2022/04/05 06:38:01;;;;;;;0.50;0.50;;;;;;;;;;6184929;23;20186;-87
2022/04/05 06:40:30;;;;;;;0.50;0.50;;;;;;;;;;6185072;23;20178;-86
2022/04/05 06:43:03;;;;;;;0.50;0.50;;;;;;;;;;6185237;23;20229;-87
2022/04/05 06:45:34;;;;;;;0.50;0.50;;;;;;;;;;6184887;23;20260;-87
2022/04/05 06:48:06;;;;;;;0.50;0.50;;;;;;;;;;6185422;23;20244;-86
2022/04/05 06:50:35;;;;;;;0.50;0.50;;;;;;;;;;6184636;23;20181;-86
2022/04/05 06:53:04;;;;;;;0.50;0.50;;;;;;;;;;6185002;23;20209;-87
2022/04/05 06:55:33;;;;;;;0.50;0.50;;;;;;;;;;6184898;23;20530;-86
2022/04/05 06:58:05;;;;;;;0.50;0.50;;;;;;;;;;6184885;23;20258;-86
2022/04/05 07:00:35;;;;;;;0.50;0.50;;;;;;;;;;6184536;23;20180;-87
2022/04/05 07:03:04;;;;;;;0.50;0.50;;;;;;;;;;6184137;23;20205;-87
2022/04/05 07:05:33;;;;;;;0.50;0.50;;;;;;;;;;6184043;23;20303;-87
2022/04/05 07:08:02;;;;;;;0.40;0.40;;;;;;;;;;6184651;23;20183;-87
2022/04/05 07:10:37;;;;;;;0.50;0.50;;;;;;;;;;6183083;23;20178;-86
2022/04/05 07:13:09;;;;;;;0.50;0.50;;;;;;;;;;6182738;23;20198;-87
2022/04/05 07:15:46;;;;;;;0.40;0.40;;;;;;;;;;6182561;23;20183;-87
2022/04/05 07:21:44;;;;;;;0.50;0.50;;;;;;;;;;6068633;23;20184;-87
2022/04/05 07:24:27;;;;;;;0.50;0.50;;;;;;;;;;6068845;23;20177;-87
2022/04/05 07:27:09;;;;;;;0.40;0.40;;;;;;;;;;6069673;23;20255;-87
2022/04/05 07:29:48;;;;;;;0.50;0.50;;;;;;;;;;6069108;23;20509;-87
2022/04/05 07:32:26;;;;;;;0.50;0.50;;;;;;;;;;6063124;23;20206;-87
2022/04/05 07:35:03;;;;;;;0.50;0.50;;;;;;;;;;6068174;23;20339;-87
2022/04/05 07:37:55;;;;;;;0.50;0.50;;;;;;;;;;6071568;23;20177;-86
2022/04/05 07:40:27;;;;;;;0.50;0.50;;;;;;;;;;6069551;23;20177;-87
2022/04/05 07:43:19;;;;;;;0.50;0.50;;;;;;;;;;6069885;23;20265;-87
2022/04/05 07:49:05;;;;;;;0.50;0.50;;;;;;;;;;6066648;23;20250;-86
2022/04/05 07:51:41;;;;;;;0.50;0.50;;;;;;;;;;6068328;23;20205;-87
2022/04/05 07:54:42;;;;;;;0.50;0.50;;;;;;;;;;6069469;23;20192;-86
2022/04/05 07:57:13;;;;;;;0.50;0.50;;;;;;;;;;6103106;23;20178;-86
2022/04/05 07:59:53;;;;;;;0.50;0.50;;;;;;;;;;6181548;23;20194;-87
2022/04/05 08:02:26;;;;;;;3.43;1.43;;;;;;;;;;6181648;23;20182;-86
2022/04/05 08:05:14;;;;;;;10.10;4.23;;;;;;;;;;6181758;23;20201;-87
2022/04/05 08:07:53;;;;;;;10.73;3.77;;;;;;;;;;6182116;23;20181;-87
2022/04/05 08:10:33;;;;;;;5.20;3.33;;;;;;;;;;6180177;23;20183;-86
2022/04/05 08:13:06;;;;;;;9.07;4.60;;;;;;;;;;6182515;23;20186;-87
2022/04/05 08:15:46;;;;;;;2.07;1.97;;;;;;;;;;6181054;23;20205;-86
2022/04/05 08:18:19;;;;;;;11.73;3.73;;;;;;;;;;6181118;23;20206;-86
2022/04/05 08:20:49;;;;;;;9.30;5.03;;;;;;;;;;6182575;23;20183;-85
2022/04/05 08:26:42;;;;;;;10.40;5.97;;;;;;;;;;6182668;23;20178;-86
2022/04/05 08:29:16;;;;;;;11.60;4.57;;;;;;;;;;6182504;23;20186;-83
2022/04/05 08:31:45;;;;;;;10.50;4.10;;;;;;;;;;6181476;23;20179;-80
2022/04/05 08:34:14;;;;;;;8.60;4.30;;;;;;;;;;6180325;23;20202;-80
2022/04/05 08:36:53;;;;;;;11.00;5.03;;;;;;;;;;6182149;23;20182;-87
2022/04/05 08:39:55;;;;;;;8.23;3.60;;;;;;;;;;6181896;23;20238;-87
2022/04/05 08:43:06;;;;;;;;;;;;;;;;;;;;;
2022/04/05 08:45:59;;;;;;;7.10;3.20;;;;;;;;;;6181196;23;20233;-87
2022/04/05 08:48:48;;;;;;;5.17;3.20;;;;;;;;;;6180428;23;20175;-87
2022/04/05 08:51:17;;;;;;;8.93;5.00;;;;;;;;;;6180436;23;20185;-86
2022/04/05 08:53:58;;;;;;;8.00;4.70;;;;;;;;;;6182589;23;20262;-87
2022/04/05 08:56:32;;;;;;;6.47;3.73;;;;;;;;;;6181259;23;20178;-87
2022/04/05 08:59:11;;;;;;;6.33;3.80;;;;;;;;;;6181848;23;20175;-87
2022/04/05 09:01:45;;;;;;;11.90;4.50;;;;;;;;;;6182076;23;20210;-86
2022/04/05 09:04:14;;;;;;;14.93;7.33;;;;;;;;;;6182800;23;20179;-87
2022/04/05 09:06:52;;;;;;;10.10;4.83;;;;;;;;;;6182651;23;20211;-88
2022/04/05 09:09:28;;;;;;;19.93;5.60;;;;;;;;;;6182794;23;20185;-87
2022/04/05 09:12:21;;;;;;;11.10;4.70;;;;;;;;;;6183537;23;20237;-88
2022/04/05 09:14:57;;;;;;;11.47;5.03;;;;;;;;;;6181637;23;20194;-88
2022/04/05 09:17:46;;;;;;;4.93;2.77;;;;;;;;;;6183542;23;20229;-88
2022/04/05 09:20:19;;;;;;;10.33;5.90;;;;;;;;;;6184720;23;20213;-87
2022/04/05 09:26:06;;;;;;;26.27;4.23;;;;;;;;;;6183932;23;20175;-87
2022/04/05 09:28:39;;;;;;;10.20;3.93;;;;;;;;;;6186078;23;20179;-88
2022/04/05 09:31:17;;;;;;;9.40;4.03;;;;;;;;;;6184405;23;20178;-87
2022/04/05 09:37:40;;;;;;;14.47;5.47;;;;;;;;;;6186564;23;20186;-86
2022/04/05 09:40:32;;;;;;;8.10;4.40;;;;;;;;;;6185042;23;20206;-87
2022/04/05 09:43:50;;;;;;;13.77;6.37;;;;;;;;;;6184799;23;20174;-86
2022/04/05 09:46:20;;;;;;;7.70;4.60;;;;;;;;;;6184482;23;20174;-85
2022/04/05 09:49:02;;;;;;;17.80;5.37;;;;;;;;;;6183873;23;20175;-85
2022/04/05 09:51:35;;;;;;;8.90;4.13;;;;;;;;;;6185051;23;20290;-87
2022/04/05 09:54:07;;;;;;;9.30;3.23;;;;;;;;;;6183296;23;20183;-87
2022/04/05 09:56:39;;;;;;;8.00;3.63;;;;;;;;;;6182790;23;20179;-84
2022/04/05 09:59:22;;;;;;;3.83;2.20;;;;;;;;;;6183041;23;20187;-87
2022/04/05 10:02:03;;;;;;;8.60;4.63;;;;;;;;;;6184074;23;20181;-86
2022/04/05 10:04:40;;;;;;;3.53;2.13;;;;;;;;;;6185284;23;20174;-87
2022/04/05 10:07:13;;;;;;;5.27;2.67;;;;;;;;;;6183066;23;20206;-86
2022/04/05 10:09:49;;;;;;;7.00;3.37;;;;;;;;;;6184014;23;20175;-86
2022/04/05 10:12:21;;;;;;;10.33;5.53;;;;;;;;;;6184266;23;20257;-86
2022/04/05 10:14:53;;;;;;;7.87;3.27;;;;;;;;;;6184272;23;20190;-88
2022/04/05 10:17:28;;;;;;;17.50;5.50;;;;;;;;;;6184358;23;20270;-85
2022/04/05 10:20:04;;;;;;;13.57;5.77;;;;;;;;;;6183925;23;20258;-87
2022/04/05 10:22:36;;;;;;;8.97;5.17;;;;;;;;;;6182046;23;20184;-87
2022/04/05 10:25:11;;;;;;;10.87;5.00;;;;;;;;;;6183942;23;20199;-88
2022/04/05 10:27:43;;;;;;;16.87;3.80;;;;;;;;;;6183473;23;20175;-86
2022/04/05 10:30:21;;;;;;;7.10;3.80;;;;;;;;;;6184023;23;20230;-86
2022/04/05 10:32:57;;;;;;;8.83;4.10;;;;;;;;;;6183723;23;20174;-86
2022/04/05 10:35:34;;;;;;;7.90;3.53;;;;;;;;;;6182615;23;20227;-86
2022/04/05 10:38:11;;;;;;;6.67;2.77;;;;;;;;;;6183983;23;20253;-86
2022/04/05 10:41:13;;;;;;;7.23;3.87;;;;;;;;;;6184785;23;20180;-88
2022/04/05 10:43:43;;;;;;;6.17;3.60;;;;;;;;;;6183984;23;20183;-88
2022/04/05 10:46:37;;;;;;;5.87;3.00;;;;;;;;;;6184924;23;20171;-88
2022/04/05 10:49:39;;;;;;;6.83;4.10;;;;;;;;;;6183783;23;20238;-86
2022/04/05 10:52:15;;;;;;;3.43;2.53;;;;;;;;;;6183407;23;20186;-88
2022/04/05 10:54:44;;;;;;;12.37;6.67;;;;;;;;;;6184715;23;20179;-86
2022/04/05 10:57:30;;;;;;;3.87;3.47;;;;;;;;;;6182803;23;20190;-87
2022/04/05 11:00:16;;;;;;;5.50;3.20;;;;;;;;;;6181431;23;20191;-86
2022/04/05 11:03:04;;;;;;;13.40;6.87;;;;;;;;;;6183035;23;20183;-86
2022/04/05 11:05:38;;;;;;;7.40;3.83;;;;;;;;;;6182070;23;20199;-86
2022/04/05 11:08:18;;;;;;;12.27;6.33;;;;;;;;;;6182962;23;20175;-84
2022/04/05 11:10:51;;;;;;;10.93;4.73;;;;;;;;;;6183987;23;20206;-86
2022/04/05 11:13:23;;;;;;;12.53;4.43;;;;;;;;;;6183602;23;20202;-84
2022/04/05 11:15:56;;;;;;;2.53;1.97;;;;;;;;;;6184204;23;20202;-89
2022/04/05 11:18:33;;;;;;;9.57;3.67;;;;;;;;;;6184480;23;20187;-88
2022/04/05 11:21:06;;;;;;;10.30;5.57;;;;;;;;;;6183409;23;20232;-87
2022/04/05 11:23:50;;;;;;;5.83;3.30;;;;;;;;;;6183930;23;20171;-86
2022/04/05 11:26:24;;;;;;;10.37;5.80;;;;;;;;;;6183749;23;20202;-86
2022/04/05 11:28:55;;;;;;;7.63;4.97;;;;;;;;;;6182074;23;20183;-87
2022/04/05 11:31:31;;;;;;;10.70;5.90;;;;;;;;;;6183016;23;20233;-87
2022/04/05 11:34:06;;;;;;;5.83;3.90;;;;;;;;;;6183723;23;20187;-88
2022/04/05 11:36:42;;;;;;;11.07;7.13;;;;;;;;;;6184556;23;20194;-88
2022/04/05 11:39:18;;;;;;;7.87;4.07;;;;;;;;;;6183725;23;20175;-88
2022/04/05 11:41:47;;;;;;;10.03;3.87;;;;;;;;;;6182306;23;20178;-82
2022/04/05 11:44:16;;;;;;;9.80;4.33;;;;;;;;;;6182146;23;20181;-84
2022/04/05 11:46:45;;;;;;;4.70;3.40;;;;;;;;;;6182384;23;20234;-82
2022/04/05 11:49:16;;;;;;;11.53;5.10;;;;;;;;;;6183444;23;20265;-84
2022/04/05 11:51:50;;;;;;;3.87;2.97;;;;;;;;;;6184059;23;20218;-88
2022/04/05 11:54:28;;;;;;;9.03;5.57;;;;;;;;;;6184307;23;20174;-90
2022/04/05 11:57:05;;;;;;;9.10;5.33;;;;;;;;;;6184288;23;20194;-86
2022/04/05 11:59:34;;;;;;;12.57;5.73;;;;;;;;;;6184145;23;20198;-86
2022/04/05 12:02:06;;;;;;;6.00;4.23;;;;;;;;;;6184709;23;20186;-86
2022/04/05 12:04:36;;;;;;;10.20;5.70;;;;;;;;;;6183384;23;20182;-87
2022/04/05 12:07:36;;;;;;;6.53;4.47;;;;;;;;;;6183995;23;20207;-86
2022/04/05 12:10:14;;;;;;;9.00;4.27;;;;;;;;;;6184569;23;20171;-86
2022/04/05 12:12:50;;;;;;;7.60;4.20;;;;;;;;;;6183402;23;20186;-87
2022/04/05 12:15:20;;;;;;;13.63;7.63;;;;;;;;;;6182400;23;20182;-85
2022/04/05 12:17:51;;;;;;;6.90;3.70;;;;;;;;;;6183065;23;20171;-86
2022/04/05 12:20:21;;;;;;;11.03;5.60;;;;;;;;;;6183066;23;20175;-86
2022/04/05 12:22:50;;;;;;;14.23;5.93;;;;;;;;;;6183963;23;20201;-86
2022/04/05 12:25:22;;;;;;;9.67;3.70;;;;;;;;;;6183548;23;20202;-85
2022/04/05 12:27:58;;;;;;;6.43;3.83;;;;;;;;;;6183126;23;20183;-86
2022/04/05 12:30:32;;;;;;;4.37;3.57;;;;;;;;;;6183423;23;20237;-85
2022/04/05 12:33:04;;;;;;;9.53;5.73;;;;;;;;;;6182947;23;20259;-87
2022/04/05 12:35:35;;;;;;;8.97;4.77;;;;;;;;;;6183271;23;20203;-86
2022/04/05 12:38:04;;;;;;;7.23;4.83;;;;;;;;;;6182846;23;20207;-86
2022/04/05 12:40:43;;;;;;;7.17;4.90;;;;;;;;;;6182568;23;20179;-86
2022/04/05 12:43:16;;;;;;;11.40;6.03;;;;;;;;;;6182903;23;20179;-86
2022/04/05 12:45:44;;;;;;;16.37;5.47;;;;;;;;;;6184130;23;20186;-86
2022/04/05 12:48:14;;;;;;;5.80;4.43;;;;;;;;;;6183420;23;20184;-87
2022/04/05 12:50:51;;;;;;;8.93;5.73;;;;;;;;;;6186226;23;20179;-87
2022/04/05 12:53:35;;;;;;;5.93;4.30;;;;;;;;;;6183638;23;20184;-86
2022/04/05 12:56:08;;;;;;;5.80;4.63;;;;;;;;;;6185861;23;20199;-86
2022/04/05 12:58:45;;;;;;;10.40;4.57;;;;;;;;;;6185105;23;20182;-87
2022/04/05 13:01:37;;;;;;;14.87;3.10;;;;;;;;;;6185167;23;20175;-86
2022/04/05 13:04:06;;;;;;;8.93;5.13;;;;;;;;;;6183949;23;20233;-86
2022/04/05 13:06:36;;;;;;;6.73;5.40;;;;;;;;;;6183863;23;20211;-87
2022/04/05 13:09:06;;;;;;;7.63;4.87;;;;;;;;;;6184135;23;20179;-87
2022/04/05 13:11:36;;;;;;;10.53;5.40;;;;;;;;;;6183388;23;20253;-87
2022/04/05 13:14:06;;;;;;;11.53;6.83;;;;;;;;;;6184880;23;20179;-87
2022/04/05 13:16:34;;;;;;;10.27;5.60;;;;;;;;;;6184293;23;20278;-86
2022/04/05 13:19:08;;;;;;;8.20;5.00;;;;;;;;;;6185071;23;20203;-87
2022/04/05 13:21:54;;;;;;;5.23;3.30;;;;;;;;;;6183833;23;20190;-87
2022/04/05 13:24:23;;;;;;;4.97;3.50;;;;;;;;;;6184302;23;20189;-86
2022/04/05 13:26:52;;;;;;;7.67;4.67;;;;;;;;;;6184798;23;20176;-87
2022/04/05 13:29:24;;;;;;;5.80;4.40;;;;;;;;;;6183636;23;20179;-87
2022/04/05 13:31:54;;;;;;;7.03;4.57;;;;;;;;;;6185237;23;20175;-87
2022/04/05 13:34:23;;;;;;;7.67;5.30;;;;;;;;;;6185054;23;20186;-85
2022/04/05 13:36:54;;;;;;;8.60;4.20;;;;;;;;;;6184946;23;20202;-85
2022/04/05 13:39:24;;;;;;;11.23;5.40;;;;;;;;;;6183057;23;20180;-86
2022/04/05 13:41:53;;;;;;;10.90;7.83;;;;;;;;;;6183927;23;20207;-87
2022/04/05 13:44:25;;;;;;;6.27;3.80;;;;;;;;;;6185152;23;20175;-84
2022/04/05 13:46:54;;;;;;;8.47;6.47;;;;;;;;;;6184602;23;20197;-86
2022/04/05 13:49:24;;;;;;;8.33;4.80;;;;;;;;;;6159643;23;20180;-86
2022/04/05 13:51:55;;;;;;;12.47;7.47;;;;;;;;;;6184434;23;20206;-86
2022/04/05 13:54:44;;;;;;;6.73;3.67;;;;;;;;;;6184045;23;20176;-85
2022/04/05 13:57:16;;;;;;;5.90;4.00;;;;;;;;;;6184190;23;20191;-84
2022/04/05 13:59:48;;;;;;;7.57;4.00;;;;;;;;;;6182957;23;20183;-85
2022/04/05 14:02:18;;;;;;;6.03;3.77;;;;;;;;;;6184104;23;20175;-84
2022/04/05 14:04:47;;;;;;;4.07;3.17;;;;;;;;;;6184678;23;20201;-86
2022/04/05 14:07:18;;;;;;;5.83;3.93;;;;;;;;;;6183372;23;20238;-87
2022/04/05 14:09:49;;;;;;;4.60;2.93;;;;;;;;;;6183840;23;20179;-84
2022/04/05 14:12:17;;;;;;;6.37;3.67;;;;;;;;;;6208658;23;20214;-86
2022/04/05 14:14:51;;;;;;;6.80;2.93;;;;;;;;;;6184090;23;20203;-88
2022/04/05 14:17:19;;;;;;;7.23;4.60;;;;;;;;;;6184522;23;20195;-87
2022/04/05 14:19:48;;;;;;;7.87;4.83;;;;;;;;;;6184821;23;20183;-86
2022/04/05 14:22:20;;;;;;;5.13;3.83;;;;;;;;;;6183898;23;20262;-87
2022/04/05 14:24:49;;;;;;;8.87;5.90;;;;;;;;;;6184125;23;20175;-85
2022/04/05 14:27:21;;;;;;;5.43;3.87;;;;;;;;;;6183679;23;20175;-85
2022/04/05 14:29:49;;;;;;;4.60;3.20;;;;;;;;;;6183970;23;20178;-84
2022/04/05 14:32:18;;;;;;;7.97;4.03;;;;;;;;;;6185151;23;20206;-82
2022/04/05 14:34:47;;;;;;;2.47;2.17;;;;;;;;;;6182388;23;20269;-84
2022/04/05 14:37:15;;;;;;;12.17;3.63;;;;;;;;;;6183250;23;20218;-85
2022/04/05 14:39:45;;;;;;;10.37;4.03;;;;;;;;;;6183241;23;20179;-86
2022/04/05 14:42:14;;;;;;;7.83;3.80;;;;;;;;;;6183175;23;20183;-84
2022/04/05 14:44:45;;;;;;;6.33;3.07;;;;;;;;;;6183261;23;20175;-85
2022/04/05 14:47:14;;;;;;;5.27;4.83;;;;;;;;;;6183023;23;20202;-85
2022/04/05 14:49:42;;;;;;;10.87;4.37;;;;;;;;;;6182210;23;20253;-84
2022/04/05 14:52:11;;;;;;;14.70;4.70;;;;;;;;;;6182582;23;20175;-85
2022/04/05 14:54:41;;;;;;;9.73;4.73;;;;;;;;;;6183027;23;20247;-87
2022/04/05 14:57:12;;;;;;;11.30;6.43;;;;;;;;;;6185796;23;20191;-88
2022/04/05 14:59:46;;;;;;;5.33;4.40;;;;;;;;;;6183378;23;20249;-86
2022/04/05 15:02:16;;;;;;;5.60;3.80;;;;;;;;;;6184009;23;20179;-87
2022/04/05 15:05:04;;;;;;;8.67;5.17;;;;;;;;;;6182957;23;20175;-86
2022/04/05 15:07:45;;;;;;;5.97;2.73;;;;;;;;;;6179033;23;20210;-87
2022/04/05 15:10:14;;;;;;;8.27;3.80;;;;;;;;;;6182323;23;20171;-86
2022/04/05 15:13:04;;;;;;;8.50;4.33;;;;;;;;;;6183004;23;20379;-87
2022/04/05 15:15:36;;;;;;;14.17;5.50;;;;;;;;;;6183779;23;20175;-87
2022/04/05 15:18:13;;;;;;;12.40;4.27;;;;;;;;;;6183081;23;20191;-88
2022/04/05 15:21:02;;;;;;;6.70;3.33;;;;;;;;;;6183638;23;20175;-88
2022/04/05 15:23:36;;;;;;;5.47;3.40;;;;;;;;;;6185211;23;20324;-88
2022/04/05 15:26:11;;;;;;;7.97;4.23;;;;;;;;;;6185550;23;20178;-89
2022/04/05 15:28:43;;;;;;;12.80;4.53;;;;;;;;;;6185777;23;20266;-88
2022/04/05 15:31:15;;;;;;;3.23;2.00;;;;;;;;;;6186060;23;20225;-88
2022/04/05 15:33:56;;;;;;;8.97;3.73;;;;;;;;;;6185331;23;20205;-88